LXPMR ELLX-EGPO
Flight info
| Callsign | LXPMR |
|---|---|
| Flight time | 1h 54m |
| Altitude | 34000 |
| Route | DIK DCT BUB DCT COA DCT LOGAN DCT WTZ DCT MAM DCT LEE DCT TLA DCT NEVIS DCT STN DCT |
| Aircraft | HDJT/L-VGD/A |
Departure
| Time | 2026-05-01 09:19 |
|---|---|
| Airport | Luxembourg-Findel International Airport (ELLX) |
Arrival
| Time | 2026-05-01 11:13 |
|---|---|
| Airport | Stornoway Airport (EGPO) |
| Time | Latitude | Longitude | Altitude | Speed | Heading |
|---|---|---|---|---|---|
| 2026-05-01 09:08 | 49.63234 | 6.21783 | 1224 ft | 0 kts | 60° |
| 2026-05-01 09:13 | 49.63235 | 6.21786 | 1224 ft | 1 kts | 59° |
| 2026-05-01 09:14 | 49.63249 | 6.21819 | 1224 ft | 10 kts | 60° |
| 2026-05-01 09:14 | 49.63213 | 6.21883 | 1222 ft | 14 kts | 145° |
| 2026-05-01 09:14 | 49.63124 | 6.21805 | 1220 ft | 24 kts | 243° |
| 2026-05-01 09:14 | 49.63042 | 6.21536 | 1221 ft | 31 kts | 245° |
| 2026-05-01 09:15 | 49.62975 | 6.21346 | 1223 ft | 15 kts | 254° |
| 2026-05-01 09:15 | 49.62970 | 6.21316 | 1225 ft | 0 kts | 244° |
| 2026-05-01 09:15 | 49.62967 | 6.21308 | 1225 ft | 5 kts | 244° |
| 2026-05-01 09:15 | 49.62933 | 6.21192 | 1227 ft | 20 kts | 244° |
| 2026-05-01 09:16 | 49.62852 | 6.20925 | 1229 ft | 34 kts | 245° |
| 2026-05-01 09:16 | 49.62692 | 6.20619 | 1236 ft | 41 kts | 223° |
| 2026-05-01 09:16 | 49.62579 | 6.20471 | 1229 ft | 12 kts | 187° |
| 2026-05-01 09:17 | 49.62517 | 6.20496 | 1228 ft | 0 kts | 147° |
| 2026-05-01 09:18 | 49.62483 | 6.20527 | 1228 ft | 11 kts | 154° |
| 2026-05-01 09:18 | 49.62516 | 6.20809 | 1229 ft | 57 kts | 59° |
| 2026-05-01 09:19 | 49.63246 | 6.22908 | 1825 ft | 128 kts | 66° |
| 2026-05-01 09:19 | 49.63612 | 6.24138 | 2608 ft | 126 kts | 70° |
| 2026-05-01 09:19 | 49.64047 | 6.25472 | 2936 ft | 154 kts | 65° |
| 2026-05-01 09:20 | 49.65690 | 6.28141 | 3670 ft | 227 kts | 30° |
| 2026-05-01 09:20 | 49.67332 | 6.32040 | 5210 ft | 215 kts | 83° |
| 2026-05-01 09:21 | 49.68292 | 6.36542 | 6832 ft | 229 kts | 64° |
| 2026-05-01 09:21 | 49.69130 | 6.38655 | 7584 ft | 232 kts | 58° |
| 2026-05-01 09:21 | 49.71918 | 6.41204 | 9151 ft | 247 kts | 8° |
| 2026-05-01 09:22 | 49.75184 | 6.39612 | 10670 ft | 259 kts | 317° |
| 2026-05-01 09:22 | 49.77236 | 6.34987 | 12069 ft | 266 kts | 301° |
| 2026-05-01 09:23 | 49.78221 | 6.32543 | 12806 ft | 269 kts | 301° |
| 2026-05-01 09:23 | 49.80219 | 6.27564 | 14272 ft | 276 kts | 302° |
| 2026-05-01 09:24 | 49.82294 | 6.22475 | 15607 ft | 282 kts | 301° |
| 2026-05-01 09:24 | 49.83340 | 6.19887 | 16297 ft | 285 kts | 301° |
| 2026-05-01 09:24 | 49.85460 | 6.14636 | 17692 ft | 290 kts | 301° |
| 2026-05-01 09:25 | 49.88175 | 6.09967 | 19003 ft | 296 kts | 317° |
| 2026-05-01 09:25 | 49.91156 | 6.05522 | 20297 ft | 300 kts | 317° |
| 2026-05-01 09:26 | 49.92666 | 6.03276 | 20989 ft | 299 kts | 317° |
| 2026-05-01 09:26 | 49.95702 | 5.98768 | 22342 ft | 304 kts | 317° |
| 2026-05-01 09:26 | 49.97223 | 5.96500 | 23116 ft | 304 kts | 317° |
| 2026-05-01 09:27 | 50.00297 | 5.91918 | 24333 ft | 311 kts | 317° |
| 2026-05-01 09:27 | 50.01869 | 5.89568 | 24857 ft | 316 kts | 317° |
| 2026-05-01 09:27 | 50.03462 | 5.87184 | 25363 ft | 319 kts | 318° |
| 2026-05-01 09:28 | 50.05077 | 5.84767 | 25840 ft | 324 kts | 318° |
| 2026-05-01 09:28 | 50.06698 | 5.82338 | 26439 ft | 324 kts | 317° |
| 2026-05-01 09:28 | 50.08319 | 5.79906 | 27047 ft | 323 kts | 317° |
| 2026-05-01 09:28 | 50.09945 | 5.77465 | 27575 ft | 325 kts | 317° |
| 2026-05-01 09:29 | 50.13245 | 5.72506 | 28464 ft | 332 kts | 317° |
| 2026-05-01 09:29 | 50.14901 | 5.70011 | 29054 ft | 331 kts | 316° |
| 2026-05-01 09:30 | 50.18248 | 5.64964 | 29866 ft | 339 kts | 317° |
| 2026-05-01 09:30 | 50.19947 | 5.62398 | 30289 ft | 342 kts | 317° |
| 2026-05-01 09:30 | 50.23376 | 5.57209 | 31160 ft | 340 kts | 317° |
| 2026-05-01 09:31 | 50.25082 | 5.54623 | 31509 ft | 343 kts | 316° |
| 2026-05-01 09:31 | 50.26785 | 5.52041 | 31997 ft | 340 kts | 315° |
| 2026-05-01 09:31 | 50.30217 | 5.46826 | 32712 ft | 342 kts | 315° |
| 2026-05-01 09:32 | 50.31901 | 5.44263 | 33307 ft | 336 kts | 315° |
| 2026-05-01 09:32 | 50.35257 | 5.39150 | 34097 ft | 335 kts | 315° |
| 2026-05-01 09:32 | 50.36933 | 5.36590 | 34279 ft | 342 kts | 315° |
| 2026-05-01 09:33 | 50.40436 | 5.31235 | 34278 ft | 361 kts | 315° |
| 2026-05-01 09:33 | 50.44112 | 5.25601 | 34280 ft | 377 kts | 315° |
| 2026-05-01 09:34 | 50.46005 | 5.22696 | 34279 ft | 384 kts | 315° |
| 2026-05-01 09:34 | 50.51846 | 5.13709 | 34280 ft | 399 kts | 315° |
| 2026-05-01 09:35 | 50.57868 | 5.04409 | 34286 ft | 409 kts | 314° |
| 2026-05-01 09:36 | 50.61923 | 4.98127 | 34287 ft | 414 kts | 315° |
| 2026-05-01 09:36 | 50.66037 | 4.91737 | 34287 ft | 417 kts | 315° |
| 2026-05-01 09:37 | 50.70171 | 4.85300 | 34290 ft | 419 kts | 314° |
| 2026-05-01 09:37 | 50.76395 | 4.75573 | 34289 ft | 421 kts | 314° |
| 2026-05-01 09:38 | 50.82641 | 4.65774 | 34297 ft | 422 kts | 314° |
| 2026-05-01 09:39 | 50.88188 | 4.57042 | 34301 ft | 423 kts | 314° |
| 2026-05-01 09:39 | 50.91835 | 4.49809 | 34301 ft | 421 kts | 300° |
| 2026-05-01 09:40 | 50.96354 | 4.37871 | 34299 ft | 422 kts | 300° |
| 2026-05-01 09:41 | 50.99407 | 4.29927 | 34297 ft | 421 kts | 299° |
| 2026-05-01 09:41 | 51.03959 | 4.17979 | 34292 ft | 422 kts | 300° |
| 2026-05-01 09:42 | 51.06983 | 4.09995 | 34288 ft | 422 kts | 300° |
| 2026-05-01 09:43 | 51.13016 | 3.94035 | 34279 ft | 423 kts | 299° |
| 2026-05-01 09:43 | 51.16039 | 3.85999 | 34276 ft | 423 kts | 299° |
| 2026-05-01 09:44 | 51.20564 | 3.73921 | 34274 ft | 423 kts | 299° |
| 2026-05-01 09:45 | 51.23575 | 3.65853 | 34273 ft | 423 kts | 299° |
| 2026-05-01 09:45 | 51.28078 | 3.53739 | 34271 ft | 423 kts | 299° |
| 2026-05-01 09:46 | 51.31072 | 3.45652 | 34270 ft | 423 kts | 298° |
| 2026-05-01 09:46 | 51.34061 | 3.37556 | 34268 ft | 422 kts | 298° |
| 2026-05-01 09:47 | 51.36385 | 3.28987 | 34273 ft | 420 kts | 288° |
| 2026-05-01 09:47 | 51.38433 | 3.20225 | 34271 ft | 420 kts | 289° |
| 2026-05-01 09:48 | 51.40521 | 3.11484 | 34271 ft | 420 kts | 288° |
| 2026-05-01 09:48 | 51.42574 | 3.02715 | 34271 ft | 420 kts | 288° |
| 2026-05-01 09:49 | 51.44637 | 2.93949 | 34269 ft | 420 kts | 288° |
| 2026-05-01 09:49 | 51.46686 | 2.85163 | 34264 ft | 421 kts | 288° |
| 2026-05-01 09:50 | 51.48722 | 2.76418 | 34266 ft | 421 kts | 288° |
| 2026-05-01 09:50 | 51.50765 | 2.67600 | 34263 ft | 422 kts | 288° |
| 2026-05-01 09:51 | 51.52803 | 2.58769 | 34263 ft | 422 kts | 288° |
| 2026-05-01 09:51 | 51.54835 | 2.49925 | 34257 ft | 422 kts | 288° |
| 2026-05-01 09:52 | 51.56860 | 2.41075 | 34262 ft | 422 kts | 288° |
| 2026-05-01 09:52 | 51.58879 | 2.32212 | 34259 ft | 422 kts | 287° |
| 2026-05-01 09:53 | 51.60893 | 2.23336 | 34253 ft | 422 kts | 287° |
| 2026-05-01 09:53 | 51.62900 | 2.14453 | 34253 ft | 422 kts | 287° |
| 2026-05-01 09:54 | 51.64901 | 2.05562 | 34253 ft | 422 kts | 287° |
| 2026-05-01 09:54 | 51.66882 | 1.96721 | 34253 ft | 422 kts | 287° |
| 2026-05-01 09:55 | 51.68871 | 1.87807 | 34253 ft | 423 kts | 286° |
| 2026-05-01 09:55 | 51.70855 | 1.78876 | 34253 ft | 423 kts | 286° |
| 2026-05-01 09:56 | 51.72834 | 1.69929 | 34253 ft | 424 kts | 286° |
| 2026-05-01 09:56 | 51.75153 | 1.61182 | 34255 ft | 429 kts | 299° |
| 2026-05-01 09:57 | 51.78971 | 1.53723 | 34250 ft | 433 kts | 310° |
| 2026-05-01 09:57 | 51.83021 | 1.46526 | 34253 ft | 433 kts | 309° |
| 2026-05-01 09:58 | 51.87067 | 1.39309 | 34254 ft | 433 kts | 309° |
| 2026-05-01 09:58 | 51.91116 | 1.32075 | 34255 ft | 434 kts | 309° |
| 2026-05-01 09:59 | 51.95161 | 1.24821 | 34255 ft | 434 kts | 309° |
| 2026-05-01 09:59 | 51.99207 | 1.17546 | 34253 ft | 434 kts | 309° |
| 2026-05-01 10:00 | 52.03225 | 1.10301 | 34219 ft | 435 kts | 308° |
| 2026-05-01 10:00 | 52.07266 | 1.02992 | 34215 ft | 435 kts | 308° |
| 2026-05-01 10:01 | 52.11425 | 0.95837 | 34219 ft | 439 kts | 317° |
| 2026-05-01 10:01 | 52.16691 | 0.90740 | 34241 ft | 445 kts | 335° |
| 2026-05-01 10:02 | 52.22394 | 0.86811 | 34238 ft | 445 kts | 334° |
| 2026-05-01 10:02 | 52.28041 | 0.82663 | 34235 ft | 445 kts | 334° |
| 2026-05-01 10:03 | 52.33726 | 0.78622 | 34229 ft | 446 kts | 334° |
| 2026-05-01 10:03 | 52.39391 | 0.74503 | 34228 ft | 445 kts | 334° |
| 2026-05-01 10:04 | 52.45064 | 0.70409 | 34228 ft | 446 kts | 334° |
| 2026-05-01 10:04 | 52.50732 | 0.66284 | 34227 ft | 446 kts | 334° |
| 2026-05-01 10:05 | 52.56399 | 0.62161 | 34216 ft | 445 kts | 334° |
| 2026-05-01 10:05 | 52.62062 | 0.58023 | 34216 ft | 445 kts | 334° |
| 2026-05-01 10:06 | 52.67367 | 0.52939 | 34219 ft | 440 kts | 320° |
| 2026-05-01 10:06 | 52.72255 | 0.46861 | 34218 ft | 441 kts | 320° |
| 2026-05-01 10:07 | 52.77178 | 0.40930 | 34202 ft | 441 kts | 320° |
| 2026-05-01 10:07 | 52.82099 | 0.34866 | 34205 ft | 441 kts | 320° |
| 2026-05-01 10:08 | 52.89497 | 0.25799 | 34202 ft | 441 kts | 320° |
| 2026-05-01 10:09 | 52.94419 | 0.19729 | 34205 ft | 441 kts | 320° |
| 2026-05-01 10:09 | 52.99340 | 0.13647 | 34205 ft | 441 kts | 320° |
| 2026-05-01 10:10 | 53.04258 | 0.07550 | 34205 ft | 441 kts | 320° |
| 2026-05-01 10:10 | 53.11623 | -0.01614 | 34196 ft | 441 kts | 320° |
| 2026-05-01 10:11 | 53.16532 | -0.07744 | 34190 ft | 441 kts | 320° |
| 2026-05-01 10:11 | 53.21436 | -0.13885 | 34192 ft | 441 kts | 320° |
| 2026-05-01 10:12 | 53.25504 | -0.18995 | 34193 ft | 440 kts | 320° |
| 2026-05-01 10:13 | 53.33628 | -0.29233 | 34195 ft | 439 kts | 320° |
| 2026-05-01 10:13 | 53.38504 | -0.35404 | 34197 ft | 439 kts | 320° |
| 2026-05-01 10:14 | 53.45803 | -0.44673 | 34214 ft | 439 kts | 320° |
| 2026-05-01 10:14 | 53.50662 | -0.50868 | 34215 ft | 438 kts | 320° |
| 2026-05-01 10:15 | 53.55517 | -0.57073 | 34214 ft | 438 kts | 319° |
| 2026-05-01 10:15 | 53.60367 | -0.63294 | 34211 ft | 438 kts | 319° |
| 2026-05-01 10:16 | 53.65215 | -0.69527 | 34207 ft | 438 kts | 319° |
| 2026-05-01 10:17 | 53.72478 | -0.78903 | 34201 ft | 438 kts | 319° |
| 2026-05-01 10:17 | 53.79731 | -0.88308 | 34194 ft | 438 kts | 319° |
| 2026-05-01 10:18 | 53.86938 | -0.97695 | 34194 ft | 438 kts | 319° |
| 2026-05-01 10:19 | 53.91761 | -1.03999 | 34194 ft | 438 kts | 319° |
| 2026-05-01 10:19 | 53.96579 | -1.10316 | 34191 ft | 438 kts | 320° |
| 2026-05-01 10:20 | 54.03793 | -1.19811 | 34195 ft | 437 kts | 319° |
| 2026-05-01 10:20 | 54.08597 | -1.26157 | 34197 ft | 437 kts | 319° |
| 2026-05-01 10:21 | 54.15793 | -1.35700 | 34190 ft | 437 kts | 319° |
| 2026-05-01 10:22 | 54.22950 | -1.45233 | 34188 ft | 437 kts | 319° |
| 2026-05-01 10:23 | 54.30074 | -1.54939 | 34193 ft | 435 kts | 316° |
| 2026-05-01 10:23 | 54.37017 | -1.64987 | 34191 ft | 435 kts | 317° |
| 2026-05-01 10:24 | 54.46223 | -1.78395 | 34188 ft | 433 kts | 316° |
| 2026-05-01 10:25 | 54.55379 | -1.91808 | 34178 ft | 431 kts | 316° |
| 2026-05-01 10:26 | 54.59942 | -1.98523 | 34167 ft | 431 kts | 316° |
| 2026-05-01 10:27 | 54.69017 | -2.11940 | 34167 ft | 431 kts | 316° |
| 2026-05-01 10:28 | 54.75833 | -2.22070 | 34155 ft | 430 kts | 316° |
| 2026-05-01 10:28 | 54.82631 | -2.32219 | 34154 ft | 429 kts | 316° |
| 2026-05-01 10:29 | 54.89405 | -2.42379 | 34158 ft | 429 kts | 316° |
| 2026-05-01 10:30 | 54.98404 | -2.55951 | 34159 ft | 428 kts | 316° |
| 2026-05-01 10:31 | 55.07346 | -2.69519 | 34163 ft | 427 kts | 316° |
| 2026-05-01 10:32 | 55.14059 | -2.79762 | 34137 ft | 426 kts | 316° |
| 2026-05-01 10:33 | 55.22962 | -2.93417 | 34146 ft | 425 kts | 316° |
| 2026-05-01 10:34 | 55.29588 | -3.03624 | 34129 ft | 419 kts | 315° |
| 2026-05-01 10:34 | 55.33957 | -3.10399 | 34134 ft | 419 kts | 316° |
| 2026-05-01 10:35 | 55.40508 | -3.20607 | 34135 ft | 419 kts | 315° |
| 2026-05-01 10:35 | 55.44851 | -3.27363 | 34134 ft | 420 kts | 316° |
| 2026-05-01 10:36 | 55.51682 | -3.37024 | 34146 ft | 425 kts | 329° |
| 2026-05-01 10:37 | 55.56058 | -3.41172 | 34143 ft | 427 kts | 328° |
| 2026-05-01 10:37 | 55.63877 | -3.48764 | 34146 ft | 428 kts | 329° |
| 2026-05-01 10:38 | 55.69063 | -3.53788 | 34149 ft | 427 kts | 328° |
| 2026-05-01 10:38 | 55.74273 | -3.58870 | 34154 ft | 427 kts | 328° |
| 2026-05-01 10:39 | 55.79482 | -3.63961 | 34159 ft | 427 kts | 328° |
| 2026-05-01 10:39 | 55.84690 | -3.69055 | 34157 ft | 427 kts | 328° |
| 2026-05-01 10:40 | 55.89892 | -3.74169 | 34158 ft | 427 kts | 328° |
| 2026-05-01 10:40 | 55.95095 | -3.79295 | 34155 ft | 427 kts | 328° |
| 2026-05-01 10:41 | 56.00294 | -3.84436 | 34155 ft | 427 kts | 328° |
| 2026-05-01 10:42 | 56.08084 | -3.92174 | 34157 ft | 427 kts | 328° |
| 2026-05-01 10:42 | 56.13285 | -3.97337 | 34157 ft | 427 kts | 328° |
| 2026-05-01 10:43 | 56.18445 | -4.02516 | 34158 ft | 429 kts | 328° |
| 2026-05-01 10:43 | 56.23668 | -4.07744 | 34164 ft | 431 kts | 328° |
| 2026-05-01 10:44 | 56.28908 | -4.13020 | 34155 ft | 432 kts | 327° |
| 2026-05-01 10:44 | 56.34158 | -4.18314 | 34154 ft | 432 kts | 327° |
| 2026-05-01 10:45 | 56.39416 | -4.23563 | 34147 ft | 432 kts | 327° |
| 2026-05-01 10:45 | 56.44650 | -4.28909 | 34145 ft | 432 kts | 328° |
| 2026-05-01 10:46 | 56.50035 | -4.33683 | 34157 ft | 429 kts | 321° |
| 2026-05-01 10:46 | 56.54904 | -4.39937 | 34146 ft | 431 kts | 325° |
| 2026-05-01 10:47 | 56.60239 | -4.44985 | 34141 ft | 433 kts | 330° |
| 2026-05-01 10:47 | 56.65502 | -4.50254 | 34136 ft | 431 kts | 324° |
| 2026-05-01 10:48 | 56.70703 | -4.55726 | 34135 ft | 433 kts | 328° |
| 2026-05-01 10:48 | 56.75947 | -4.61066 | 34140 ft | 431 kts | 326° |
| 2026-05-01 10:49 | 56.81145 | -4.66520 | 34129 ft | 431 kts | 326° |
| 2026-05-01 10:49 | 56.86373 | -4.71932 | 34122 ft | 433 kts | 326° |
| 2026-05-01 10:50 | 56.91572 | -4.77389 | 34127 ft | 435 kts | 326° |
| 2026-05-01 10:50 | 56.96830 | -4.82888 | 34123 ft | 435 kts | 326° |
| 2026-05-01 10:51 | 57.02076 | -4.88417 | 34130 ft | 435 kts | 326° |
| 2026-05-01 10:51 | 57.07307 | -4.93935 | 34117 ft | 433 kts | 325° |
| 2026-05-01 10:52 | 57.12538 | -4.99479 | 34114 ft | 434 kts | 325° |
| 2026-05-01 10:52 | 57.17771 | -5.05037 | 34106 ft | 434 kts | 325° |
| 2026-05-01 10:53 | 57.22995 | -5.10610 | 34106 ft | 434 kts | 325° |
| 2026-05-01 10:53 | 57.28220 | -5.16198 | 34108 ft | 434 kts | 325° |
| 2026-05-01 10:54 | 57.33422 | -5.21782 | 34106 ft | 432 kts | 325° |
| 2026-05-01 10:54 | 57.38585 | -5.27343 | 34094 ft | 431 kts | 325° |
| 2026-05-01 10:54 | 57.41146 | -5.30084 | 33735 ft | 421 kts | 325° |
| 2026-05-01 10:55 | 57.43676 | -5.32814 | 33251 ft | 421 kts | 324° |
| 2026-05-01 10:55 | 57.46207 | -5.35578 | 32716 ft | 422 kts | 324° |
| 2026-05-01 10:55 | 57.48744 | -5.38343 | 32194 ft | 423 kts | 324° |
| 2026-05-01 10:55 | 57.51288 | -5.41100 | 31662 ft | 424 kts | 324° |
| 2026-05-01 10:56 | 57.53843 | -5.43874 | 31122 ft | 427 kts | 324° |
| 2026-05-01 10:56 | 57.56401 | -5.46678 | 30580 ft | 426 kts | 324° |
| 2026-05-01 10:56 | 57.58958 | -5.49485 | 30027 ft | 428 kts | 324° |
| 2026-05-01 10:56 | 57.61532 | -5.52288 | 29395 ft | 429 kts | 324° |
| 2026-05-01 10:57 | 57.64113 | -5.55103 | 28784 ft | 431 kts | 324° |
| 2026-05-01 10:57 | 57.66692 | -5.57933 | 28193 ft | 429 kts | 324° |
| 2026-05-01 10:57 | 57.69251 | -5.60749 | 27609 ft | 425 kts | 324° |
| 2026-05-01 10:57 | 57.71787 | -5.63540 | 27039 ft | 421 kts | 324° |
| 2026-05-01 10:58 | 57.74303 | -5.66312 | 26479 ft | 418 kts | 324° |
| 2026-05-01 10:58 | 57.76800 | -5.69070 | 25929 ft | 415 kts | 324° |
| 2026-05-01 10:58 | 57.79279 | -5.71814 | 25389 ft | 412 kts | 324° |
| 2026-05-01 10:58 | 57.81735 | -5.74533 | 24878 ft | 408 kts | 324° |
| 2026-05-01 10:59 | 57.84168 | -5.77234 | 24361 ft | 405 kts | 324° |
| 2026-05-01 10:59 | 57.86586 | -5.79925 | 23837 ft | 402 kts | 324° |
| 2026-05-01 10:59 | 57.88986 | -5.82596 | 23275 ft | 400 kts | 324° |
| 2026-05-01 10:59 | 57.91366 | -5.85248 | 22678 ft | 396 kts | 324° |
| 2026-05-01 11:00 | 57.93687 | -5.87841 | 22097 ft | 392 kts | 324° |
| 2026-05-01 11:00 | 57.96021 | -5.90453 | 21523 ft | 388 kts | 324° |
| 2026-05-01 11:00 | 57.98331 | -5.93040 | 20958 ft | 385 kts | 324° |
| 2026-05-01 11:00 | 58.00621 | -5.95608 | 20407 ft | 381 kts | 324° |
| 2026-05-01 11:01 | 58.02888 | -5.98157 | 19867 ft | 378 kts | 324° |
| 2026-05-01 11:01 | 58.05137 | -6.00688 | 19334 ft | 375 kts | 324° |
| 2026-05-01 11:01 | 58.07365 | -6.03199 | 18826 ft | 371 kts | 324° |
| 2026-05-01 11:01 | 58.09571 | -6.05688 | 18300 ft | 368 kts | 324° |
| 2026-05-01 11:02 | 58.11757 | -6.08161 | 17708 ft | 365 kts | 324° |
| 2026-05-01 11:02 | 58.13922 | -6.10610 | 17128 ft | 361 kts | 324° |
| 2026-05-01 11:02 | 58.16046 | -6.13098 | 16562 ft | 356 kts | 319° |
| 2026-05-01 11:02 | 58.17883 | -6.16134 | 16007 ft | 346 kts | 308° |
| 2026-05-01 11:03 | 58.19356 | -6.19658 | 15471 ft | 338 kts | 297° |
| 2026-05-01 11:03 | 58.20447 | -6.23532 | 14934 ft | 329 kts | 288° |
| 2026-05-01 11:03 | 58.21149 | -6.27605 | 14408 ft | 322 kts | 278° |
| 2026-05-01 11:03 | 58.21479 | -6.31746 | 13886 ft | 315 kts | 271° |
| 2026-05-01 11:04 | 58.21705 | -6.35870 | 13302 ft | 313 kts | 271° |
| 2026-05-01 11:04 | 58.21948 | -6.39948 | 12727 ft | 310 kts | 271° |
| 2026-05-01 11:04 | 58.22182 | -6.43985 | 12161 ft | 307 kts | 271° |
| 2026-05-01 11:04 | 58.22412 | -6.47972 | 11597 ft | 299 kts | 271° |
| 2026-05-01 11:05 | 58.22634 | -6.51874 | 11003 ft | 296 kts | 271° |
| 2026-05-01 11:05 | 58.22839 | -6.55667 | 10426 ft | 291 kts | 271° |
| 2026-05-01 11:05 | 58.23043 | -6.59451 | 9826 ft | 286 kts | 271° |
| 2026-05-01 11:05 | 58.23263 | -6.63173 | 9198 ft | 282 kts | 272° |
| 2026-05-01 11:06 | 58.23792 | -6.66765 | 8544 ft | 286 kts | 292° |
| 2026-05-01 11:06 | 58.24975 | -6.69800 | 7890 ft | 290 kts | 311° |
| 2026-05-01 11:06 | 58.26665 | -6.71900 | 7257 ft | 294 kts | 333° |
| 2026-05-01 11:07 | 58.30679 | -6.72159 | 6266 ft | 292 kts | 17° |
| 2026-05-01 11:07 | 58.32434 | -6.70317 | 6035 ft | 286 kts | 39° |
| 2026-05-01 11:07 | 58.33713 | -6.67496 | 5806 ft | 279 kts | 61° |
| 2026-05-01 11:07 | 58.34398 | -6.64111 | 5579 ft | 271 kts | 82° |
| 2026-05-01 11:08 | 58.34465 | -6.60599 | 5360 ft | 262 kts | 99° |
| 2026-05-01 11:08 | 58.34284 | -6.57163 | 5135 ft | 260 kts | 99° |
| 2026-05-01 11:08 | 58.34060 | -6.50324 | 4534 ft | 263 kts | 92° |
| 2026-05-01 11:09 | 58.34145 | -6.46812 | 4077 ft | 268 kts | 90° |
| 2026-05-01 11:09 | 58.34186 | -6.43284 | 3716 ft | 264 kts | 93° |
| 2026-05-01 11:09 | 58.34178 | -6.39857 | 3519 ft | 255 kts | 93° |
| 2026-05-01 11:10 | 58.33025 | -6.34372 | 3106 ft | 214 kts | 149° |
| 2026-05-01 11:10 | 58.31705 | -6.33299 | 2889 ft | 202 kts | 168° |
| 2026-05-01 11:10 | 58.30347 | -6.33023 | 2687 ft | 193 kts | 182° |
| 2026-05-01 11:10 | 58.29017 | -6.33053 | 2486 ft | 188 kts | 184° |
| 2026-05-01 11:11 | 58.27850 | -6.33364 | 2256 ft | 152 kts | 195° |
| 2026-05-01 11:11 | 58.26919 | -6.33624 | 1995 ft | 117 kts | 189° |
| 2026-05-01 11:11 | 58.26218 | -6.33714 | 1891 ft | 88 kts | 180° |
| 2026-05-01 11:11 | 58.25585 | -6.33666 | 1412 ft | 101 kts | 181° |
| 2026-05-01 11:12 | 58.24851 | -6.33642 | 1009 ft | 112 kts | 180° |
| 2026-05-01 11:12 | 58.24017 | -6.33534 | 515 ft | 121 kts | 176° |
| 2026-05-01 11:12 | 58.23228 | -6.33437 | 333 ft | 109 kts | 173° |
| 2026-05-01 11:12 | 58.22465 | -6.33280 | 69 ft | 110 kts | 173° |
| 2026-05-01 11:13 | 58.21785 | -6.33150 | 22 ft | 85 kts | 174° |
| 2026-05-01 11:13 | 58.21364 | -6.33064 | 19 ft | 35 kts | 174° |
| 2026-05-01 11:13 | 58.21138 | -6.33023 | 22 ft | 30 kts | 176° |
| 2026-05-01 11:13 | 58.20947 | -6.32990 | 24 ft | 15 kts | 170° |
| 2026-05-01 11:14 | 58.20925 | -6.32905 | 24 ft | 8 kts | 104° |
| 2026-05-01 11:14 | 58.20929 | -6.32728 | 22 ft | 18 kts | 91° |
| 2026-05-01 11:14 | 58.20990 | -6.32534 | 13 ft | 20 kts | 17° |
| 2026-05-01 11:14 | 58.21124 | -6.32550 | 15 ft | 19 kts | 355° |
| 2026-05-01 11:15 | 58.21258 | -6.32559 | 14 ft | 19 kts | 32° |
| 2026-05-01 11:15 | 58.21334 | -6.32466 | 17 ft | 11 kts | 356° |
| 2026-05-01 11:15 | 58.21389 | -6.32481 | 16 ft | 0 kts | 339° |
| 2026-05-01 11:16 | 58.21413 | -6.32481 | 17 ft | 6 kts | 30° |
| 2026-05-01 11:16 | 58.21439 | -6.32416 | 19 ft | 7 kts | 54° |
| 2026-05-01 11:17 | 58.21457 | -6.32342 | 22 ft | 6 kts | 79° |
| 2026-05-01 11:17 | 58.21464 | -6.32264 | 24 ft | 6 kts | 83° |
| 2026-05-01 11:17 | 58.21468 | -6.32174 | 25 ft | 9 kts | 86° |
| 2026-05-01 11:17 | 58.21449 | -6.32115 | 26 ft | 6 kts | 158° |
| 2026-05-01 11:18 | 58.21431 | -6.32138 | 28 ft | 0 kts | 266° |